createdAt,value
2023-02-26T00:00:03.827Z,4.89
2023-02-26T00:01:06.489Z,5.14
2023-02-26T00:02:10.033Z,4.51
2023-02-26T00:03:13.320Z,5.79
2023-02-26T00:04:16.322Z,3.13
2023-02-26T00:05:19.424Z,4.97
2023-02-26T00:06:22.405Z,3.82
2023-02-26T00:07:25.875Z,3.68
2023-02-26T00:08:28.568Z,3.44
2023-02-26T00:09:32.173Z,4.36
2023-02-26T00:10:34.959Z,5.62
2023-02-26T00:11:38.080Z,3.72
2023-02-26T00:12:41.169Z,3.67
2023-02-26T00:13:44.162Z,4.64
2023-02-26T00:14:47.137Z,4.91
2023-02-26T00:15:50.006Z,5.53
2023-02-26T00:16:53.313Z,4.00
2023-02-26T00:17:56.986Z,4.98
2023-02-26T00:19:00.927Z,4.67
2023-02-26T00:20:03.843Z,3.59
2023-02-26T00:21:06.613Z,3.89
2023-02-26T00:22:09.575Z,6.39
2023-02-26T00:23:12.460Z,6.95
2023-02-26T00:24:15.149Z,4.69
2023-02-26T00:25:18.111Z,3.87
2023-02-26T00:26:20.993Z,5.25
2023-02-26T00:27:23.858Z,2.98
2023-02-26T00:28:27.375Z,3.26
2023-02-26T00:29:30.849Z,4.24
2023-02-26T00:30:34.156Z,5.87
2023-02-26T00:31:37.109Z,3.52
2023-02-26T00:32:40.346Z,3.92
2023-02-26T00:33:43.586Z,5.18
2023-02-26T00:34:46.849Z,2.57
2023-02-26T00:35:50.133Z,4.45
2023-02-26T00:36:53.026Z,4.63
2023-02-26T00:37:56.225Z,6.15
2023-02-26T00:38:59.725Z,3.44
2023-02-26T00:40:02.875Z,3.63
2023-02-26T00:41:06.019Z,5.59
2023-02-26T00:42:09.352Z,4.98
2023-02-26T00:43:12.442Z,3.92
2023-02-26T00:44:15.693Z,3.73
2023-02-26T00:45:18.775Z,4.08
2023-02-26T00:46:21.932Z,4.81
2023-02-26T00:47:25.242Z,5.49
2023-02-26T00:48:28.776Z,6.98
2023-02-26T00:49:32.481Z,4.99
2023-02-26T00:50:35.399Z,6.32
2023-02-26T00:51:38.474Z,4.18
2023-02-26T00:52:41.673Z,5.64
2023-02-26T00:53:44.755Z,4.00
2023-02-26T00:54:48.021Z,3.97
2023-02-26T00:55:51.111Z,5.30
2023-02-26T00:56:54.190Z,8.48
2023-02-26T00:57:57.187Z,9.15
2023-02-26T00:59:00.249Z,13.56
2023-02-26T01:00:03.572Z,9.55
2023-02-26T01:01:06.840Z,14.87
2023-02-26T01:02:09.797Z,13.23
2023-02-26T01:03:12.783Z,10.58
2023-02-26T01:04:15.735Z,9.31
2023-02-26T01:05:18.623Z,10.58
2023-02-26T01:06:21.733Z,11.78
2023-02-26T01:07:24.693Z,12.38
2023-02-26T01:08:27.658Z,14.28
2023-02-26T01:09:31.030Z,12.06
2023-02-26T01:10:34.538Z,11.73
2023-02-26T01:11:37.912Z,9.99
2023-02-26T01:12:41.037Z,13.27
2023-02-26T01:13:44.063Z,12.21
2023-02-26T01:14:46.844Z,12.04
2023-02-26T01:15:50.212Z,9.63
2023-02-26T01:16:53.207Z,8.84
2023-02-26T01:17:56.506Z,10.94
2023-02-26T01:18:59.927Z,9.98
2023-02-26T01:20:03.076Z,7.91
2023-02-26T01:21:06.658Z,8.05
2023-02-26T01:22:09.831Z,7.58
2023-02-26T01:23:12.900Z,7.08
2023-02-26T01:24:15.993Z,8.53
2023-02-26T01:25:19.269Z,12.39
2023-02-26T01:26:22.534Z,9.45
2023-02-26T01:27:26.122Z,11.28
2023-02-26T01:28:29.089Z,7.77
2023-02-26T01:29:32.222Z,11.87
2023-02-26T01:30:35.615Z,12.49
2023-02-26T01:31:39.365Z,9.89
2023-02-26T01:32:42.643Z,8.87
2023-02-26T01:33:45.671Z,9.70
2023-02-26T01:34:49.146Z,8.79
2023-02-26T01:35:52.333Z,10.09
2023-02-26T01:36:56.121Z,8.40
2023-02-26T01:37:59.302Z,8.76
2023-02-26T01:39:02.593Z,11.95
2023-02-26T01:40:05.799Z,10.08
2023-02-26T01:41:08.915Z,11.98
2023-02-26T01:42:12.454Z,9.41
2023-02-26T01:43:15.228Z,9.73
2023-02-26T01:44:18.397Z,12.30
2023-02-26T01:45:21.180Z,10.31
2023-02-26T01:46:24.160Z,12.24
2023-02-26T01:47:27.020Z,7.93
2023-02-26T01:48:29.692Z,10.15
2023-02-26T01:49:32.675Z,9.38
2023-02-26T01:50:35.952Z,8.90
2023-02-26T01:51:39.344Z,12.30
2023-02-26T01:52:42.849Z,9.78
2023-02-26T01:53:45.805Z,10.16
2023-02-26T01:54:49.231Z,5.71
2023-02-26T01:55:52.299Z,9.90
2023-02-26T01:56:55.448Z,11.46
2023-02-26T01:57:58.738Z,8.28
2023-02-26T01:59:01.821Z,8.93
2023-02-26T02:00:05.003Z,9.35
2023-02-26T02:01:08.175Z,7.03
2023-02-26T02:02:11.230Z,7.62
2023-02-26T02:03:14.577Z,10.55
2023-02-26T02:04:17.375Z,9.97
2023-02-26T02:05:20.710Z,9.68
2023-02-26T02:06:24.426Z,8.17
2023-02-26T02:07:27.686Z,9.81
2023-02-26T02:08:30.978Z,9.59
2023-02-26T02:09:34.138Z,9.06
2023-02-26T02:10:37.220Z,10.86
2023-02-26T02:11:40.216Z,9.72
2023-02-26T02:12:43.222Z,8.99
2023-02-26T02:13:46.146Z,11.61
2023-02-26T02:14:49.344Z,8.61
2023-02-26T02:15:52.723Z,9.34
2023-02-26T02:16:55.910Z,8.82
2023-02-26T02:17:59.310Z,9.95
2023-02-26T02:19:02.055Z,12.81
2023-02-26T02:20:05.453Z,10.72
2023-02-26T02:21:08.320Z,13.53
2023-02-26T02:22:11.299Z,10.22
2023-02-26T02:23:14.162Z,9.45
2023-02-26T02:24:16.953Z,12.69
2023-02-26T02:25:19.906Z,13.31
2023-02-26T02:26:22.912Z,8.84
2023-02-26T02:27:25.769Z,9.64
2023-02-26T02:28:28.793Z,10.12
2023-02-26T02:29:31.936Z,10.81
2023-02-26T02:30:34.935Z,10.55
2023-02-26T02:31:38.343Z,11.42
2023-02-26T02:32:41.482Z,8.74
2023-02-26T02:33:44.668Z,10.47
2023-02-26T02:34:48.000Z,10.17
2023-02-26T02:35:51.026Z,13.39
2023-02-26T02:36:53.896Z,11.24
2023-02-26T02:37:57.077Z,10.10
2023-02-26T02:39:00.155Z,13.77
2023-02-26T02:40:03.551Z,12.93
2023-02-26T02:41:06.656Z,10.86
2023-02-26T02:42:09.704Z,12.74
2023-02-26T02:43:12.677Z,12.55
2023-02-26T02:44:15.786Z,12.05
2023-02-26T02:45:19.074Z,9.75
2023-02-26T02:46:22.637Z,7.85
2023-02-26T02:47:25.711Z,11.26
2023-02-26T02:48:28.825Z,12.17
2023-02-26T02:49:31.761Z,10.31
2023-02-26T02:50:35.053Z,10.39
2023-02-26T02:51:38.146Z,9.84
2023-02-26T02:52:41.212Z,10.78
2023-02-26T02:53:44.492Z,8.28
2023-02-26T02:54:47.474Z,9.46
2023-02-26T02:55:50.894Z,10.79
2023-02-26T02:56:53.837Z,8.12
2023-02-26T02:57:56.714Z,10.01
2023-02-26T02:58:59.684Z,11.33
2023-02-26T03:00:02.792Z,10.92
2023-02-26T03:01:05.856Z,11.33
2023-02-26T03:02:08.622Z,9.64
2023-02-26T03:03:11.695Z,11.95
2023-02-26T03:04:14.476Z,9.07
2023-02-26T03:05:17.186Z,12.53
2023-02-26T03:06:20.016Z,9.88
2023-02-26T03:07:22.990Z,11.41
2023-02-26T03:08:26.238Z,9.36
2023-02-26T03:09:29.462Z,9.26
2023-02-26T03:10:32.853Z,10.32
2023-02-26T03:11:36.228Z,9.47
2023-02-26T03:12:39.721Z,9.22
2023-02-26T03:13:42.831Z,12.04
2023-02-26T03:14:45.773Z,8.35
2023-02-26T03:15:48.899Z,9.50
2023-02-26T03:16:52.424Z,9.80
2023-02-26T03:17:55.448Z,9.28
2023-02-26T03:18:58.395Z,8.58
2023-02-26T03:20:01.502Z,8.49
2023-02-26T03:21:04.563Z,8.52
2023-02-26T03:22:07.747Z,6.70
2023-02-26T03:23:10.840Z,10.38
2023-02-26T03:24:14.555Z,12.07
2023-02-26T03:25:17.516Z,7.12
2023-02-26T03:26:20.476Z,8.06
2023-02-26T03:27:23.779Z,9.43
2023-02-26T03:28:27.058Z,10.44
2023-02-26T03:29:30.275Z,7.03
2023-02-26T03:30:33.437Z,7.75
2023-02-26T03:31:36.875Z,9.84
2023-02-26T03:32:40.139Z,9.98
2023-02-26T03:33:43.463Z,10.95
2023-02-26T03:34:47.178Z,9.48
2023-02-26T03:35:50.540Z,10.19
2023-02-26T03:36:53.314Z,8.95
2023-02-26T03:37:56.606Z,8.43
2023-02-26T03:38:59.693Z,6.20
2023-02-26T03:40:02.655Z,7.28
2023-02-26T03:41:05.334Z,7.85
2023-02-26T03:42:08.126Z,8.48
2023-02-26T03:43:11.493Z,8.00
2023-02-26T03:44:14.677Z,8.78
2023-02-26T03:45:18.062Z,10.08
2023-02-26T03:46:21.494Z,8.88
2023-02-26T03:47:24.948Z,7.70
2023-02-26T03:48:28.746Z,6.37
2023-02-26T03:49:32.129Z,10.09
2023-02-26T03:50:35.294Z,12.39
2023-02-26T03:51:39.093Z,12.10
2023-02-26T03:52:42.278Z,7.95
2023-02-26T03:53:45.681Z,7.16
2023-02-26T03:54:48.956Z,8.61
2023-02-26T03:55:52.138Z,8.24
2023-02-26T03:56:54.920Z,6.95
2023-02-26T03:57:58.284Z,8.61
2023-02-26T03:59:01.670Z,10.30
2023-02-26T04:00:04.923Z,7.21
2023-02-26T04:01:08.451Z,10.36
2023-02-26T04:02:12.030Z,8.01
2023-02-26T04:03:15.559Z,10.20
2023-02-26T04:04:19.341Z,7.86
2023-02-26T04:05:22.709Z,9.12
2023-02-26T04:06:25.962Z,7.79
2023-02-26T04:07:28.790Z,8.59
2023-02-26T04:08:31.436Z,8.70
2023-02-26T04:09:34.327Z,8.16
2023-02-26T04:10:37.179Z,11.38
2023-02-26T04:11:40.064Z,8.45
2023-02-26T04:12:42.739Z,7.85
2023-02-26T04:13:45.616Z,7.98
2023-02-26T04:14:49.202Z,7.01
2023-02-26T04:15:52.181Z,6.54
2023-02-26T04:16:55.300Z,6.87
2023-02-26T04:17:58.344Z,8.71
2023-02-26T04:19:01.418Z,6.31
2023-02-26T04:20:04.712Z,7.51
2023-02-26T04:21:07.879Z,9.76
2023-02-26T04:22:10.878Z,11.97
2023-02-26T04:23:13.836Z,9.84
2023-02-26T04:24:16.909Z,8.01
2023-02-26T04:25:20.193Z,10.05
2023-02-26T04:26:23.573Z,10.45
2023-02-26T04:27:26.663Z,7.74
2023-02-26T04:28:29.538Z,7.38
2023-02-26T04:29:32.826Z,8.15
2023-02-26T04:30:35.855Z,7.53
2023-02-26T04:31:38.817Z,6.15
2023-02-26T04:32:41.959Z,9.05
2023-02-26T04:33:44.933Z,10.88
2023-02-26T04:34:48.036Z,11.92
2023-02-26T04:35:51.419Z,7.39
2023-02-26T04:36:54.589Z,7.57
2023-02-26T04:37:57.454Z,9.78
2023-02-26T04:39:00.629Z,12.90
2023-02-26T04:40:03.812Z,9.60
2023-02-26T04:41:06.989Z,8.46
2023-02-26T04:42:09.977Z,9.61
2023-02-26T04:43:13.064Z,7.62
2023-02-26T04:44:17.364Z,9.22
2023-02-26T04:45:20.240Z,9.43
2023-02-26T04:46:23.708Z,6.68
2023-02-26T04:47:26.940Z,7.94
2023-02-26T04:48:29.878Z,8.94
2023-02-26T04:49:32.764Z,7.62
2023-02-26T04:50:35.421Z,8.50
2023-02-26T04:51:38.293Z,8.53
2023-02-26T04:52:41.188Z,8.40
2023-02-26T04:53:44.212Z,7.82
2023-02-26T04:54:47.417Z,7.30
2023-02-26T04:55:52.335Z,8.03
2023-02-26T04:56:55.248Z,8.03
2023-02-26T04:57:58.258Z,7.55
2023-02-26T04:59:01.405Z,9.80
2023-02-26T05:00:04.568Z,10.07
2023-02-26T05:01:07.553Z,11.18
2023-02-26T05:02:10.730Z,7.78
2023-02-26T05:03:13.720Z,7.43
2023-02-26T05:04:16.723Z,7.59
2023-02-26T05:05:19.694Z,8.28
2023-02-26T05:06:22.861Z,8.52
2023-02-26T05:07:26.030Z,9.42
2023-02-26T05:08:29.003Z,9.18
2023-02-26T05:09:31.877Z,6.08
2023-02-26T05:10:34.965Z,10.40
2023-02-26T05:11:38.156Z,8.13
2023-02-26T05:12:41.505Z,8.89
2023-02-26T05:13:44.517Z,8.87
2023-02-26T05:14:47.707Z,6.42
2023-02-26T05:15:50.895Z,7.78
2023-02-26T05:16:54.083Z,8.25
2023-02-26T05:17:57.459Z,8.42
2023-02-26T05:19:02.454Z,6.58
2023-02-26T05:20:05.152Z,8.13
2023-02-26T05:21:08.155Z,8.87
2023-02-26T05:22:11.104Z,7.20
2023-02-26T05:23:13.966Z,7.31
2023-02-26T05:24:16.946Z,8.01
2023-02-26T05:25:20.128Z,8.87
2023-02-26T05:26:23.890Z,9.51
2023-02-26T05:27:27.003Z,9.35
2023-02-26T05:28:30.299Z,7.58
2023-02-26T05:29:33.372Z,10.08
2023-02-26T05:30:36.609Z,9.22
2023-02-26T05:31:40.162Z,9.20
2023-02-26T05:32:43.025Z,6.96
2023-02-26T05:33:46.197Z,9.33
2023-02-26T05:34:49.039Z,10.37
2023-02-26T05:35:51.939Z,9.58
2023-02-26T05:36:54.616Z,8.81
2023-02-26T05:37:57.530Z,9.93
2023-02-26T05:39:00.576Z,9.82
2023-02-26T05:40:03.811Z,9.26
2023-02-26T05:41:06.836Z,7.68
2023-02-26T05:42:09.810Z,8.28
2023-02-26T05:43:12.979Z,9.93
2023-02-26T05:44:16.177Z,8.48
2023-02-26T05:45:19.256Z,8.68
2023-02-26T05:46:22.407Z,9.42
2023-02-26T05:47:25.858Z,9.33
2023-02-26T05:48:29.003Z,8.81
2023-02-26T05:49:32.592Z,10.72
2023-02-26T05:50:35.674Z,7.13
2023-02-26T05:51:38.754Z,7.56
2023-02-26T05:52:41.724Z,8.14
2023-02-26T05:53:44.797Z,5.77
2023-02-26T05:54:48.292Z,8.48
2023-02-26T05:55:51.165Z,11.60
2023-02-26T05:56:54.146Z,9.78
2023-02-26T05:57:57.141Z,7.93
2023-02-26T05:59:00.096Z,8.75
2023-02-26T06:00:03.496Z,9.89
2023-02-26T06:01:06.567Z,8.37
2023-02-26T06:02:09.668Z,9.28
2023-02-26T06:03:12.577Z,7.15
2023-02-26T06:04:15.718Z,7.92
2023-02-26T06:05:18.574Z,8.81
2023-02-26T06:06:22.553Z,8.38
2023-02-26T06:07:25.544Z,9.04
2023-02-26T06:08:28.390Z,8.16
2023-02-26T06:09:31.397Z,8.07
2023-02-26T06:10:34.508Z,9.45
2023-02-26T06:11:37.674Z,8.65
2023-02-26T06:12:40.744Z,11.88
2023-02-26T06:13:43.721Z,11.12
2023-02-26T06:14:46.696Z,10.62
2023-02-26T06:15:49.679Z,8.40
2023-02-26T06:16:52.356Z,9.02
2023-02-26T06:17:55.046Z,10.15
2023-02-26T06:18:57.591Z,9.70
2023-02-26T06:20:00.355Z,10.67
2023-02-26T06:21:03.249Z,8.58
2023-02-26T06:22:06.116Z,9.64
2023-02-26T06:23:08.886Z,8.88
2023-02-26T06:24:11.657Z,10.41
2023-02-26T06:25:14.754Z,10.23
2023-02-26T06:26:18.014Z,11.91
2023-02-26T06:27:20.877Z,10.92
2023-02-26T06:28:24.077Z,11.67
2023-02-26T06:29:27.245Z,9.44
2023-02-26T06:30:30.267Z,12.23
2023-02-26T06:31:33.592Z,10.98
2023-02-26T06:32:36.591Z,9.81
2023-02-26T06:33:39.668Z,9.67
2023-02-26T06:34:42.552Z,10.32
2023-02-26T06:35:45.315Z,8.86
2023-02-26T06:36:48.408Z,9.63
2023-02-26T06:37:51.515Z,11.21
2023-02-26T06:38:54.576Z,9.84
2023-02-26T06:39:57.456Z,11.55
2023-02-26T06:41:00.549Z,11.77
2023-02-26T06:42:03.586Z,12.73
2023-02-26T06:43:06.676Z,15.47
2023-02-26T06:44:09.650Z,10.42
2023-02-26T06:45:12.632Z,13.33
2023-02-26T06:46:15.751Z,11.90
2023-02-26T06:47:19.211Z,10.22
2023-02-26T06:48:22.174Z,10.29
2023-02-26T06:49:25.054Z,10.72
2023-02-26T06:50:28.025Z,12.12
2023-02-26T06:51:31.100Z,12.94
2023-02-26T06:52:34.393Z,11.15
2023-02-26T06:53:37.268Z,14.91
2023-02-26T06:54:40.260Z,13.65
2023-02-26T06:55:43.343Z,14.32
2023-02-26T06:56:46.480Z,10.40
2023-02-26T06:57:49.708Z,12.57
2023-02-26T06:58:52.756Z,13.51
2023-02-26T06:59:55.706Z,13.06
2023-02-26T07:00:58.845Z,13.40
2023-02-26T07:02:01.672Z,14.63
2023-02-26T07:03:04.795Z,12.48
2023-02-26T07:04:07.542Z,13.62
2023-02-26T07:05:10.660Z,11.58
2023-02-26T07:06:26.599Z,13.14
2023-02-26T07:07:17.856Z,14.71
2023-02-26T07:08:20.583Z,13.65
2023-02-26T07:09:23.526Z,13.14
2023-02-26T07:10:26.357Z,14.29
2023-02-26T07:11:29.425Z,14.33
2023-02-26T07:12:32.407Z,14.59
2023-02-26T07:13:35.770Z,11.34
2023-02-26T07:14:39.064Z,14.88
2023-02-26T07:15:43.254Z,12.33
2023-02-26T07:16:46.881Z,15.65
2023-02-26T07:17:49.841Z,13.24
2023-02-26T07:18:53.026Z,13.24
2023-02-26T07:19:55.896Z,12.25
2023-02-26T07:20:58.867Z,13.13
2023-02-26T07:22:01.645Z,12.59
2023-02-26T07:23:04.728Z,10.84
2023-02-26T07:24:08.108Z,13.27
2023-02-26T07:25:11.094Z,14.95
2023-02-26T07:26:14.065Z,14.28
2023-02-26T07:27:17.036Z,13.69
2023-02-26T07:28:20.116Z,13.18
2023-02-26T07:29:23.607Z,12.42
2023-02-26T07:30:26.616Z,14.55
2023-02-26T07:31:29.825Z,13.55
2023-02-26T07:32:33.327Z,16.90
2023-02-26T07:33:36.438Z,18.24
2023-02-26T07:34:39.520Z,14.22
2023-02-26T07:35:42.617Z,12.91
2023-02-26T07:36:45.765Z,12.18
2023-02-26T07:37:48.744Z,12.60
2023-02-26T07:38:51.732Z,13.42
2023-02-26T07:39:54.899Z,11.18
2023-02-26T07:40:57.919Z,12.79
2023-02-26T07:42:00.755Z,16.28
2023-02-26T07:43:03.631Z,11.99
2023-02-26T07:44:06.500Z,16.47
2023-02-26T07:45:09.999Z,13.75
2023-02-26T07:46:12.811Z,10.71
2023-02-26T07:47:15.873Z,17.05
2023-02-26T07:48:19.029Z,13.08
2023-02-26T07:49:21.711Z,14.82
2023-02-26T07:50:24.473Z,14.87
2023-02-26T07:51:27.405Z,14.03
2023-02-26T07:52:30.116Z,13.58
2023-02-26T07:53:32.989Z,12.08
2023-02-26T07:54:35.705Z,13.98
2023-02-26T07:55:38.753Z,12.39
2023-02-26T07:56:41.521Z,14.16
2023-02-26T07:57:44.490Z,12.89
2023-02-26T07:58:47.487Z,13.60
2023-02-26T07:59:50.346Z,11.94
2023-02-26T08:00:53.654Z,12.45
2023-02-26T08:01:56.592Z,15.46
2023-02-26T08:02:59.590Z,13.62
2023-02-26T08:04:02.678Z,12.58
2023-02-26T08:05:05.546Z,13.16
2023-02-26T08:06:08.628Z,13.30
2023-02-26T08:07:11.181Z,13.12
2023-02-26T08:08:13.913Z,18.88
2023-02-26T08:09:16.933Z,19.50
2023-02-26T08:10:20.124Z,17.21
2023-02-26T08:11:23.293Z,14.47
2023-02-26T08:12:26.167Z,14.72
2023-02-26T08:13:29.315Z,14.43
2023-02-26T08:14:32.528Z,14.13
2023-02-26T08:15:35.774Z,16.00
2023-02-26T08:16:39.088Z,14.88
2023-02-26T08:17:42.136Z,15.33
2023-02-26T08:18:44.948Z,14.14
2023-02-26T08:19:47.814Z,10.91
2023-02-26T08:20:50.701Z,14.55
2023-02-26T08:21:53.562Z,17.90
2023-02-26T08:22:56.547Z,15.34
2023-02-26T08:23:59.424Z,16.00
2023-02-26T08:25:02.611Z,17.75
2023-02-26T08:26:05.785Z,13.72
2023-02-26T08:27:08.463Z,15.15
2023-02-26T08:28:11.227Z,12.66
2023-02-26T08:29:14.103Z,17.22
2023-02-26T08:30:17.266Z,15.94
2023-02-26T08:31:20.469Z,16.89
2023-02-26T08:32:23.882Z,16.69
2023-02-26T08:33:26.636Z,14.96
2023-02-26T08:34:29.900Z,16.32
2023-02-26T08:35:33.087Z,12.44
2023-02-26T08:36:36.187Z,15.17
2023-02-26T08:37:39.450Z,13.38
2023-02-26T08:38:42.119Z,15.67
2023-02-26T08:39:44.899Z,17.59
2023-02-26T08:40:47.560Z,17.67
2023-02-26T08:41:50.544Z,18.68
2023-02-26T08:42:53.615Z,18.63
2023-02-26T08:43:56.312Z,19.44
2023-02-26T08:44:59.369Z,14.52
2023-02-26T08:46:02.444Z,14.44
2023-02-26T08:47:05.460Z,16.68
2023-02-26T08:48:10.753Z,14.84
2023-02-26T08:49:13.329Z,17.26
2023-02-26T08:50:16.200Z,15.79
2023-02-26T08:51:19.177Z,18.15
2023-02-26T08:52:22.282Z,15.38
2023-02-26T08:53:25.444Z,13.78
2023-02-26T08:54:28.619Z,15.22
2023-02-26T08:55:31.610Z,18.65
2023-02-26T08:56:34.594Z,19.07
2023-02-26T08:57:37.586Z,17.18
2023-02-26T08:58:40.550Z,17.40
2023-02-26T08:59:43.632Z,20.98
2023-02-26T09:00:46.505Z,19.36
2023-02-26T09:01:49.435Z,16.87
2023-02-26T09:02:52.603Z,16.85
2023-02-26T09:03:55.643Z,15.43
2023-02-26T09:04:58.314Z,16.35
2023-02-26T09:06:01.280Z,18.09
2023-02-26T09:07:04.370Z,17.26
2023-02-26T09:08:07.124Z,16.98
2023-02-26T09:09:10.237Z,16.56
2023-02-26T09:10:13.079Z,18.04
2023-02-26T09:11:15.953Z,16.20
2023-02-26T09:12:19.139Z,21.25
2023-02-26T09:13:21.927Z,17.24
2023-02-26T09:14:24.990Z,18.42
2023-02-26T09:15:28.016Z,19.57
2023-02-26T09:16:30.816Z,16.52
2023-02-26T09:17:33.618Z,16.85
2023-02-26T09:18:36.304Z,16.67
2023-02-26T09:19:39.049Z,18.22
2023-02-26T09:20:41.731Z,17.49
2023-02-26T09:21:44.359Z,16.80
2023-02-26T09:22:47.193Z,13.64
2023-02-26T09:23:50.257Z,18.13
2023-02-26T09:24:53.684Z,20.45
2023-02-26T09:25:56.513Z,13.80
2023-02-26T09:26:59.485Z,18.53
2023-02-26T09:28:02.527Z,18.43
2023-02-26T09:29:05.436Z,20.75
2023-02-26T09:30:08.924Z,19.65
2023-02-26T09:31:11.947Z,18.02
2023-02-26T09:32:14.978Z,21.07
2023-02-26T09:33:18.155Z,22.58
2023-02-26T09:34:21.443Z,15.02
2023-02-26T09:35:24.632Z,18.79
2023-02-26T09:36:28.026Z,19.58
2023-02-26T09:37:31.508Z,17.66
2023-02-26T09:38:34.792Z,16.01
2023-02-26T09:39:37.584Z,18.82
2023-02-26T09:40:40.651Z,19.23
2023-02-26T09:41:43.541Z,19.11
2023-02-26T09:42:46.505Z,19.14
2023-02-26T09:43:49.780Z,18.78
2023-02-26T09:44:52.951Z,19.96
2023-02-26T09:45:56.460Z,21.14
2023-02-26T09:46:59.414Z,16.98
2023-02-26T09:48:02.293Z,19.55
2023-02-26T09:49:05.173Z,20.01
2023-02-26T09:50:08.151Z,16.48
2023-02-26T09:51:11.124Z,17.10
2023-02-26T09:52:14.205Z,21.80
2023-02-26T09:53:16.987Z,19.64
2023-02-26T09:54:19.965Z,16.07
2023-02-26T09:55:22.735Z,16.82
2023-02-26T09:56:26.112Z,17.12
2023-02-26T09:57:28.995Z,16.50
2023-02-26T09:58:31.973Z,18.14
2023-02-26T09:59:34.864Z,16.32
2023-02-26T10:00:37.718Z,16.01
2023-02-26T10:01:40.632Z,19.30
2023-02-26T10:02:43.394Z,17.48
2023-02-26T10:03:46.175Z,15.99
2023-02-26T10:04:48.914Z,16.64
2023-02-26T10:05:51.779Z,13.53
2023-02-26T10:06:54.757Z,16.94
2023-02-26T10:07:57.429Z,17.13
2023-02-26T10:09:00.403Z,17.72
2023-02-26T10:10:03.382Z,14.99
2023-02-26T10:11:06.278Z,11.95
2023-02-26T10:12:09.354Z,13.59
2023-02-26T10:13:12.211Z,16.08
2023-02-26T10:14:14.982Z,14.62
2023-02-26T10:15:18.186Z,12.78
2023-02-26T10:16:21.068Z,10.17
2023-02-26T10:17:24.492Z,13.89
2023-02-26T10:18:27.524Z,13.32
2023-02-26T10:19:30.387Z,15.13
2023-02-26T10:20:33.642Z,9.64
2023-02-26T10:21:36.541Z,9.26
2023-02-26T10:22:39.739Z,12.85
2023-02-26T10:23:44.003Z,12.92
2023-02-26T10:24:47.217Z,10.34
2023-02-26T10:25:50.498Z,9.43
2023-02-26T10:26:53.497Z,10.50
2023-02-26T10:27:56.469Z,10.05
2023-02-26T10:28:59.453Z,11.11
2023-02-26T10:30:02.339Z,14.42
2023-02-26T10:31:05.643Z,11.65
2023-02-26T10:32:08.690Z,9.38
2023-02-26T10:33:11.853Z,10.56
2023-02-26T10:34:14.856Z,9.95
2023-02-26T10:35:17.827Z,9.65
2023-02-26T10:36:20.770Z,10.27
2023-02-26T10:37:23.758Z,9.43
2023-02-26T10:38:26.829Z,12.02
2023-02-26T10:39:29.920Z,11.58
2023-02-26T10:40:33.090Z,8.68
2023-02-26T10:41:35.864Z,9.33
2023-02-26T10:42:38.760Z,13.41
2023-02-26T10:43:41.533Z,12.28
2023-02-26T10:44:44.284Z,8.22
2023-02-26T10:45:46.887Z,9.39
2023-02-26T10:46:49.720Z,8.70
2023-02-26T10:47:52.392Z,10.19
2023-02-26T10:48:55.176Z,8.43
2023-02-26T10:49:57.854Z,10.04
2023-02-26T10:51:00.872Z,9.45
2023-02-26T10:52:03.600Z,8.20
2023-02-26T10:53:06.875Z,12.70
2023-02-26T10:54:09.541Z,10.49
2023-02-26T10:55:12.311Z,11.53
2023-02-26T10:56:15.392Z,12.32
2023-02-26T10:57:18.901Z,10.62
2023-02-26T10:58:30.675Z,6.83
2023-02-26T10:59:33.449Z,9.60
2023-02-26T11:00:36.338Z,9.05
2023-02-26T11:01:39.262Z,11.13
2023-02-26T11:02:42.207Z,9.95
2023-02-26T11:03:45.035Z,9.18
2023-02-26T11:04:53.885Z,9.62
2023-02-26T11:05:52.332Z,9.57
2023-02-26T11:06:55.353Z,9.45
2023-02-26T11:07:58.387Z,10.43
2023-02-26T11:09:01.314Z,9.45
2023-02-26T11:10:04.157Z,11.41
2023-02-26T11:11:07.210Z,8.49
2023-02-26T11:12:10.021Z,10.30
2023-02-26T11:13:13.060Z,8.72
2023-02-26T11:14:16.282Z,6.48
2023-02-26T11:15:19.014Z,9.22
2023-02-26T11:16:21.986Z,9.51
2023-02-26T11:17:25.173Z,9.95
2023-02-26T11:18:28.168Z,8.18
2023-02-26T11:19:31.246Z,9.00
2023-02-26T11:20:34.010Z,12.84
2023-02-26T11:21:36.896Z,10.14
2023-02-26T11:22:39.757Z,9.88
2023-02-26T11:23:42.734Z,10.56
2023-02-26T11:24:45.720Z,7.40
2023-02-26T11:25:48.671Z,9.28
2023-02-26T11:26:51.559Z,11.73
2023-02-26T11:27:54.608Z,10.73
2023-02-26T11:28:57.417Z,8.97
2023-02-26T11:30:00.418Z,8.11
2023-02-26T11:31:03.139Z,9.20
2023-02-26T11:32:05.994Z,9.46
2023-02-26T11:33:08.617Z,9.68
2023-02-26T11:34:11.330Z,8.78
2023-02-26T11:35:13.944Z,11.67
2023-02-26T11:36:16.511Z,11.24
2023-02-26T11:37:19.180Z,9.35
2023-02-26T11:38:22.488Z,7.06
2023-02-26T11:39:25.250Z,10.10
2023-02-26T11:40:28.221Z,7.87
2023-02-26T11:41:30.985Z,9.91
2023-02-26T11:42:34.676Z,10.57
2023-02-26T11:43:37.759Z,12.18
2023-02-26T11:44:40.746Z,10.55
2023-02-26T11:45:43.716Z,9.18
2023-02-26T11:46:46.908Z,8.93
2023-02-26T11:47:49.784Z,9.58
2023-02-26T11:48:52.793Z,13.70
2023-02-26T11:49:55.623Z,10.65
2023-02-26T11:50:58.728Z,13.02
2023-02-26T11:52:01.784Z,11.87
2023-02-26T11:53:04.758Z,11.00
2023-02-26T11:54:07.665Z,11.22
2023-02-26T11:55:10.396Z,12.67
2023-02-26T11:56:13.487Z,12.45
2023-02-26T11:57:16.455Z,12.80
2023-02-26T11:58:19.448Z,12.27
2023-02-26T11:59:22.207Z,10.93
2023-02-26T12:00:24.984Z,10.56
2023-02-26T12:01:28.196Z,10.38
2023-02-26T12:02:31.373Z,13.84
2023-02-26T12:03:34.527Z,11.56
2023-02-26T12:04:37.394Z,10.13
2023-02-26T12:05:40.372Z,11.70
2023-02-26T12:06:43.087Z,9.78
2023-02-26T12:07:45.609Z,10.97
2023-02-26T12:08:48.820Z,10.08
2023-02-26T12:09:51.572Z,10.92
2023-02-26T12:10:54.512Z,9.68
2023-02-26T12:11:57.319Z,10.27
2023-02-26T12:13:00.515Z,11.01
2023-02-26T12:14:03.059Z,10.01
2023-02-26T12:17:35.755Z,12.86
2023-02-26T12:18:38.641Z,20.13
2023-02-26T12:19:41.505Z,19.89
2023-02-26T12:20:44.374Z,12.36
2023-02-26T12:21:47.291Z,14.22
2023-02-26T12:22:50.122Z,16.03
2023-02-26T12:23:54.741Z,15.97
2023-02-26T12:24:57.610Z,14.74
2023-02-26T12:26:00.283Z,12.80
2023-02-26T12:27:03.258Z,16.05
2023-02-26T12:28:05.938Z,12.26
2023-02-26T12:29:08.608Z,13.81
2023-02-26T12:30:11.504Z,12.42
2023-02-26T12:31:14.625Z,14.82
2023-02-26T12:32:17.650Z,15.85
2023-02-26T12:33:20.371Z,17.45
2023-02-26T12:34:23.182Z,12.44
2023-02-26T12:35:26.057Z,14.96
2023-02-26T12:36:36.340Z,14.88
2023-02-26T12:37:33.477Z,10.77
2023-02-26T12:38:36.241Z,11.85
2023-02-26T12:39:39.020Z,13.48
2023-02-26T12:40:41.875Z,17.64
2023-02-26T12:41:44.752Z,12.17
2023-02-26T12:42:48.159Z,13.55
2023-02-26T12:43:51.246Z,13.40
2023-02-26T12:44:54.310Z,13.95
2023-02-26T12:45:57.494Z,12.88
2023-02-26T12:47:00.855Z,14.78
2023-02-26T12:48:03.800Z,14.17
2023-02-26T12:49:07.047Z,12.28
2023-02-26T12:50:10.076Z,11.87
2023-02-26T12:51:13.074Z,14.12
2023-02-26T12:52:16.173Z,15.15
2023-02-26T12:53:19.258Z,13.28
2023-02-26T12:54:22.328Z,14.45
2023-02-26T12:55:25.293Z,13.88
2023-02-26T12:56:28.489Z,15.30
2023-02-26T12:57:31.676Z,13.41
2023-02-26T12:58:34.781Z,13.64
2023-02-26T12:59:37.721Z,10.66
2023-02-26T13:00:40.764Z,11.54
2023-02-26T13:01:59.714Z,12.02
2023-02-26T13:02:48.999Z,12.69
2023-02-26T13:03:52.674Z,14.40
2023-02-26T13:04:56.604Z,9.46
2023-02-26T13:05:59.565Z,12.35
2023-02-26T13:07:02.547Z,9.45
2023-02-26T13:08:06.156Z,10.98
2023-02-26T13:09:09.224Z,10.23
2023-02-26T13:10:12.289Z,13.96
2023-02-26T13:11:15.392Z,11.14
2023-02-26T13:12:19.390Z,15.54
2023-02-26T13:13:22.285Z,9.99
2023-02-26T13:14:25.245Z,11.53
2023-02-26T13:15:28.481Z,10.55
2023-02-26T13:16:31.445Z,11.02
2023-02-26T13:17:34.260Z,9.82
2023-02-26T13:18:36.924Z,11.36
2023-02-26T13:19:39.702Z,13.25
2023-02-26T13:20:42.473Z,9.52
2023-02-26T13:21:45.141Z,10.68
2023-02-26T13:22:48.158Z,10.53
2023-02-26T13:23:50.797Z,11.64
2023-02-26T13:24:53.565Z,11.92
2023-02-26T13:25:56.484Z,15.93
2023-02-26T13:26:59.522Z,13.65
2023-02-26T13:28:02.397Z,16.06
2023-02-26T13:29:05.160Z,14.78
2023-02-26T13:30:07.826Z,16.12
2023-02-26T13:31:11.382Z,20.04
2023-02-26T13:32:14.352Z,16.55
2023-02-26T13:33:17.323Z,18.56
2023-02-26T13:34:20.169Z,21.75
2023-02-26T13:35:23.135Z,19.45
2023-02-26T13:36:26.552Z,18.26
2023-02-26T13:37:29.081Z,23.33
2023-02-26T13:38:32.080Z,21.94
2023-02-26T13:39:35.143Z,18.73
2023-02-26T13:40:38.261Z,21.26
2023-02-26T13:41:41.088Z,22.85
2023-02-26T13:42:44.065Z,23.16
2023-02-26T13:43:47.248Z,20.51
2023-02-26T13:44:49.962Z,17.65
2023-02-26T13:45:52.206Z,17.67